createdAt,value
2018-07-13T00:01:33.707Z,17.07
2018-07-13T00:04:02.261Z,21.12
2018-07-13T00:06:36.026Z,23.00
2018-07-13T00:09:07.170Z,21.17
2018-07-13T00:11:35.870Z,21.70
2018-07-13T00:14:10.277Z,23.00
2018-07-13T00:16:38.864Z,22.67
2018-07-13T00:19:07.785Z,20.68
2018-07-13T00:21:36.591Z,22.43
2018-07-13T00:24:06.031Z,24.07
2018-07-13T00:26:34.872Z,29.05
2018-07-13T00:29:03.524Z,23.73
2018-07-13T00:31:32.434Z,22.63
2018-07-13T00:34:01.033Z,22.90
2018-07-13T00:36:30.770Z,19.97
2018-07-13T00:38:59.564Z,19.17
2018-07-13T00:41:28.495Z,20.03
2018-07-13T00:44:03.488Z,16.80
2018-07-13T00:46:38.554Z,20.30
2018-07-13T00:49:07.065Z,20.30
2018-07-13T00:51:35.630Z,20.30
2018-07-13T00:54:04.247Z,20.37
2018-07-13T00:56:32.858Z,20.10
2018-07-13T00:59:01.856Z,23.67
2018-07-13T01:01:30.369Z,29.03
2018-07-13T01:03:58.906Z,24.23
2018-07-13T01:06:27.426Z,27.13
2018-07-13T01:08:55.983Z,29.60
2018-07-13T01:11:24.643Z,29.00
2018-07-13T01:13:53.385Z,36.53
2018-07-13T01:16:21.828Z,30.33
2018-07-13T01:18:50.357Z,34.33
2018-07-13T01:21:18.954Z,32.97
2018-07-13T01:23:47.460Z,34.08
2018-07-13T01:26:16.012Z,36.10
2018-07-13T01:28:46.050Z,33.40
2018-07-13T01:31:15.781Z,28.17
2018-07-13T01:34:01.420Z,27.77
2018-07-13T01:39:35.693Z,28.40
2018-07-13T01:47:02.797Z,28.60
2018-07-13T01:49:46.159Z,24.93
2018-07-13T01:52:20.905Z,29.33
2018-07-13T02:05:16.209Z,24.98
2018-07-13T02:08:16.045Z,28.00
2018-07-13T02:11:11.532Z,21.40
2018-07-13T02:25:23.728Z,19.83
2018-07-13T02:28:07.836Z,24.70
2018-07-13T02:43:35.276Z,27.15
2018-07-13T02:56:39.237Z,29.17
2018-07-13T03:03:26.166Z,30.97
2018-07-13T03:29:41.919Z,25.48
2018-07-13T03:32:21.149Z,29.83
2018-07-13T04:05:46.427Z,22.93
2018-07-13T04:08:15.000Z,20.43
2018-07-13T04:10:43.577Z,22.05
2018-07-13T04:13:12.146Z,22.30
2018-07-13T04:15:40.774Z,20.17
2018-07-13T04:18:19.340Z,24.40
2018-07-13T04:20:48.122Z,21.13
2018-07-13T04:23:16.656Z,28.35
2018-07-13T04:25:45.280Z,19.60
2018-07-13T04:28:13.929Z,19.27
2018-07-13T04:30:42.968Z,21.70
2018-07-13T04:33:11.607Z,19.20
2018-07-13T04:35:40.228Z,17.03
2018-07-13T04:38:08.736Z,19.43
2018-07-13T04:40:37.821Z,18.57
2018-07-13T04:43:06.429Z,17.97
2018-07-13T04:45:35.246Z,19.20
2018-07-13T04:48:04.130Z,26.70
2018-07-13T04:50:33.637Z,18.82
2018-07-13T04:53:02.291Z,18.13
2018-07-13T04:55:30.946Z,26.57
2018-07-13T04:57:59.541Z,27.15
2018-07-13T05:00:28.230Z,22.40
2018-07-13T05:02:56.862Z,22.73
2018-07-13T05:05:28.338Z,21.87
2018-07-13T05:07:56.968Z,22.77
2018-07-13T05:10:25.622Z,25.17
2018-07-13T05:12:54.101Z,22.42
2018-07-13T05:15:22.610Z,21.37
2018-07-13T05:17:52.193Z,22.37
2018-07-13T05:20:20.713Z,24.67
2018-07-13T05:22:49.281Z,29.80
2018-07-13T05:25:17.893Z,27.22
2018-07-13T05:27:46.690Z,28.12
2018-07-13T05:30:18.021Z,27.03
2018-07-13T05:32:46.609Z,24.37
2018-07-13T05:35:15.346Z,24.33
2018-07-13T05:37:43.944Z,25.40
2018-07-13T05:40:12.663Z,28.73
2018-07-13T05:42:41.317Z,26.43
2018-07-13T05:45:09.936Z,24.80
2018-07-13T05:47:38.586Z,23.47
2018-07-13T05:50:07.246Z,25.90
2018-07-13T05:52:35.854Z,21.80
2018-07-13T05:55:04.475Z,23.47
2018-07-13T05:57:33.067Z,21.73
2018-07-13T06:00:01.728Z,21.05
2018-07-13T06:02:30.762Z,22.32
2018-07-13T06:04:59.386Z,18.80
2018-07-13T06:07:27.940Z,20.00
2018-07-13T06:09:56.654Z,18.67
2018-07-13T06:12:25.293Z,16.80
2018-07-13T06:14:53.901Z,20.43
2018-07-13T06:17:22.463Z,15.93
2018-07-13T06:19:50.968Z,16.73
2018-07-13T06:22:19.498Z,16.93
2018-07-13T06:24:48.069Z,15.87
2018-07-13T06:27:16.609Z,17.13
2018-07-13T06:29:45.223Z,14.50
2018-07-13T06:32:13.808Z,18.87
2018-07-13T06:34:42.343Z,16.55
2018-07-13T06:37:10.951Z,14.53
2018-07-13T06:39:39.552Z,13.70
2018-07-13T06:42:08.169Z,18.57
2018-07-13T06:44:36.821Z,13.03
2018-07-13T06:47:05.430Z,14.50
2018-07-13T06:49:34.004Z,12.20
2018-07-13T06:52:02.614Z,12.50
2018-07-13T06:54:31.129Z,11.77
2018-07-13T06:56:59.665Z,14.27
2018-07-13T06:59:28.237Z,17.90
2018-07-13T07:01:56.792Z,11.97
2018-07-13T07:04:27.355Z,11.63
2018-07-13T07:06:56.555Z,11.40
2018-07-13T07:09:26.197Z,16.63
2018-07-13T07:14:05.076Z,12.35
2018-07-13T07:16:42.055Z,13.67
2018-07-13T07:19:11.024Z,13.50
2018-07-13T07:21:40.026Z,10.47
2018-07-13T07:24:08.595Z,12.47
2018-07-13T07:26:37.209Z,11.50
2018-07-13T07:29:06.696Z,12.67
2018-07-13T07:31:35.256Z,13.10
2018-07-13T07:34:03.846Z,9.20
2018-07-13T07:36:32.493Z,13.63
2018-07-13T07:39:01.393Z,16.43
2018-07-13T07:41:30.103Z,10.40
2018-07-13T07:43:58.706Z,8.77
2018-07-13T07:46:27.843Z,11.20
2018-07-13T07:48:56.598Z,9.10
2018-07-13T07:51:25.131Z,8.33
2018-07-13T07:53:53.891Z,9.53
2018-07-13T07:56:22.541Z,8.07
2018-07-13T07:58:51.324Z,12.43
2018-07-13T08:01:19.909Z,10.47
2018-07-13T08:03:48.504Z,10.10
2018-07-13T08:06:17.421Z,7.20
2018-07-13T08:08:45.969Z,8.40
2018-07-13T08:11:14.636Z,12.30
2018-07-13T08:13:43.249Z,10.20
2018-07-13T08:16:11.892Z,10.45
2018-07-13T08:18:40.463Z,7.40
2018-07-13T08:21:09.146Z,8.30
2018-07-13T08:23:37.882Z,11.50
2018-07-13T08:26:06.895Z,7.00
2018-07-13T08:28:35.576Z,7.03
2018-07-13T08:31:04.656Z,9.80
2018-07-13T08:33:33.507Z,8.73
2018-07-13T08:36:02.256Z,12.03
2018-07-13T08:38:30.830Z,7.75
2018-07-13T08:40:59.587Z,7.80
2018-07-13T08:43:28.382Z,7.30
2018-07-13T08:45:58.869Z,7.60
2018-07-13T08:48:27.506Z,6.80
2018-07-13T08:50:56.321Z,8.40
2018-07-13T08:53:24.950Z,6.27
2018-07-13T08:55:55.375Z,6.40
2018-07-13T08:58:23.977Z,7.83
2018-07-13T09:00:52.669Z,8.13
2018-07-13T09:03:25.183Z,7.20
2018-07-13T09:05:54.407Z,8.77
2018-07-13T09:08:22.891Z,7.00
2018-07-13T09:10:51.745Z,8.87
2018-07-13T09:13:20.346Z,7.50
2018-07-13T09:15:48.987Z,7.07
2018-07-13T09:18:18.203Z,8.50
2018-07-13T09:20:46.868Z,8.33
2018-07-13T09:23:15.432Z,8.10
2018-07-13T09:25:44.180Z,9.67
2018-07-13T09:28:12.769Z,8.10
2018-07-13T09:30:41.305Z,9.77
2018-07-13T09:33:09.977Z,7.53
2018-07-13T09:35:39.116Z,6.50
2018-07-13T09:38:09.726Z,10.90
2018-07-13T09:40:39.246Z,6.33
2018-07-13T09:43:08.031Z,7.22
2018-07-13T09:45:37.253Z,10.47
2018-07-13T09:48:07.941Z,8.63
2018-07-13T09:50:36.595Z,7.40
2018-07-13T09:53:05.501Z,7.33
2018-07-13T09:55:34.743Z,7.03
2018-07-13T09:58:04.661Z,6.17
2018-07-13T10:00:39.394Z,5.55
2018-07-13T10:03:08.321Z,9.17
2018-07-13T10:05:37.167Z,7.20
2018-07-13T10:08:05.787Z,5.73
2018-07-13T10:10:35.562Z,5.47
2018-07-13T10:13:04.868Z,5.45
2018-07-13T10:15:33.448Z,7.00
2018-07-13T10:18:02.763Z,6.07
2018-07-13T10:20:33.303Z,5.00
2018-07-13T10:23:01.901Z,6.03
2018-07-13T10:25:31.220Z,7.77
2018-07-13T10:28:02.995Z,6.80
2018-07-13T10:30:32.184Z,7.60
2018-07-13T10:33:00.788Z,5.17
2018-07-13T10:35:31.806Z,4.47
2018-07-13T10:38:01.888Z,5.20
2018-07-13T10:40:32.856Z,3.85
2018-07-13T10:43:03.060Z,4.77
2018-07-13T10:45:32.353Z,4.07
2018-07-13T10:48:01.764Z,4.77
2018-07-13T10:50:33.884Z,4.27
2018-07-13T10:53:02.520Z,4.28
2018-07-13T10:55:31.350Z,3.73
2018-07-13T10:58:00.756Z,3.53
2018-07-13T11:00:30.059Z,3.23
2018-07-13T11:02:59.106Z,4.23
2018-07-13T11:05:27.787Z,4.37
2018-07-13T11:07:56.409Z,4.47
2018-07-13T11:10:25.108Z,4.40
2018-07-13T11:12:53.935Z,3.22
2018-07-13T11:15:22.596Z,3.67
2018-07-13T11:17:54.989Z,3.23
2018-07-13T11:20:23.561Z,3.75
2018-07-13T11:22:52.200Z,5.73
2018-07-13T11:25:21.753Z,3.60
2018-07-13T11:27:51.113Z,3.57
2018-07-13T11:30:19.758Z,6.58
2018-07-13T11:32:48.238Z,3.57
2018-07-13T11:35:16.780Z,3.37
2018-07-13T11:37:45.412Z,6.17
2018-07-13T11:40:14.477Z,3.45
2018-07-13T11:42:43.396Z,3.60
2018-07-13T11:45:12.205Z,4.27
2018-07-13T11:47:40.735Z,4.10
2018-07-13T11:50:09.519Z,3.83
2018-07-13T11:52:38.049Z,3.00
2018-07-13T11:55:06.832Z,3.65
2018-07-13T11:57:35.339Z,3.83
2018-07-13T12:00:04.029Z,3.43
2018-07-13T12:02:32.543Z,5.97
2018-07-13T12:05:01.112Z,3.47
2018-07-13T12:07:29.968Z,3.10
2018-07-13T12:09:58.498Z,4.47
2018-07-13T12:12:27.102Z,2.80
2018-07-13T12:14:55.876Z,3.40
2018-07-13T12:17:26.952Z,3.23
2018-07-13T12:19:55.616Z,3.33
2018-07-13T12:22:24.605Z,3.10
2018-07-13T12:24:53.149Z,3.90
2018-07-13T12:27:38.120Z,3.20
2018-07-13T12:30:06.693Z,2.83
2018-07-13T12:32:35.213Z,2.67
2018-07-13T12:35:03.789Z,2.60
2018-07-13T12:37:32.275Z,2.20
2018-07-13T12:40:00.843Z,3.35
2018-07-13T12:42:29.347Z,2.30
2018-07-13T12:44:57.919Z,3.80
2018-07-13T12:47:26.459Z,2.65
2018-07-13T12:49:55.002Z,2.90
2018-07-13T12:52:23.555Z,2.80
2018-07-13T12:54:52.131Z,2.70
2018-07-13T12:57:20.863Z,3.20
2018-07-13T12:59:49.515Z,3.40
2018-07-13T13:02:18.409Z,3.00
2018-07-13T13:04:49.200Z,3.27
2018-07-13T13:07:20.268Z,3.42
2018-07-13T13:09:48.890Z,4.00
2018-07-13T13:12:17.811Z,3.73
2018-07-13T13:14:46.350Z,2.98
2018-07-13T13:17:14.928Z,3.30
2018-07-13T13:19:44.565Z,4.73
2018-07-13T13:22:13.841Z,5.10
2018-07-13T13:24:42.412Z,3.90
2018-07-13T13:27:11.511Z,4.50
2018-07-13T13:29:40.705Z,3.67
2018-07-13T13:32:09.487Z,4.10
2018-07-13T13:34:38.320Z,3.30
2018-07-13T13:39:48.592Z,5.37
2018-07-13T13:42:17.183Z,4.43
2018-07-13T13:44:46.488Z,4.83
2018-07-13T13:47:15.146Z,5.08
2018-07-13T13:49:43.890Z,8.73
2018-07-13T13:52:12.797Z,5.10
2018-07-13T13:54:41.327Z,4.80
2018-07-13T13:57:09.868Z,5.00
2018-07-13T13:59:38.454Z,4.47
2018-07-13T14:02:07.150Z,4.25
2018-07-13T14:04:35.757Z,5.97
2018-07-13T14:07:04.561Z,4.67
2018-07-13T14:09:35.726Z,4.23
2018-07-13T14:12:04.853Z,4.50
2018-07-13T14:14:35.268Z,4.30
2018-07-13T14:17:03.765Z,4.20
2018-07-13T14:19:32.438Z,4.33
2018-07-13T14:22:01.012Z,5.33
2018-07-13T14:24:29.807Z,4.58
2018-07-13T14:26:58.491Z,6.20
2018-07-13T14:29:27.310Z,4.73
2018-07-13T14:31:56.542Z,5.37
2018-07-13T14:34:25.168Z,5.67
2018-07-13T14:36:53.952Z,5.70
2018-07-13T14:39:27.973Z,5.20
2018-07-13T14:41:56.575Z,5.45
2018-07-13T14:44:25.172Z,9.80
2018-07-13T14:46:53.800Z,7.20
2018-07-13T14:49:22.273Z,7.97
2018-07-13T14:51:50.795Z,6.62
2018-07-13T14:54:19.444Z,8.97
2018-07-13T14:56:48.165Z,7.40
2018-07-13T14:59:16.791Z,6.33
2018-07-13T15:01:50.390Z,7.40
2018-07-13T15:04:19.189Z,10.03
2018-07-13T15:06:47.785Z,9.47
2018-07-13T15:09:16.445Z,7.87
2018-07-13T15:11:45.030Z,7.20
2018-07-13T15:14:13.597Z,6.93
2018-07-13T15:16:43.124Z,7.80
2018-07-13T15:19:12.022Z,6.53
2018-07-13T15:21:40.646Z,7.27
2018-07-13T15:24:09.387Z,7.20
2018-07-13T15:26:38.761Z,6.37
2018-07-13T15:29:10.706Z,6.83
2018-07-13T15:31:39.560Z,6.93
2018-07-13T15:34:11.922Z,7.93
2018-07-13T15:36:48.301Z,5.97
2018-07-13T15:39:19.480Z,5.90
2018-07-13T15:41:49.299Z,5.07
2018-07-13T15:44:18.971Z,6.67
2018-07-13T15:46:48.307Z,6.53
2018-07-13T15:49:18.314Z,6.00
2018-07-13T15:51:48.528Z,8.93
2018-07-13T15:54:18.621Z,7.10
2018-07-13T15:56:50.228Z,9.03
2018-07-13T15:59:19.761Z,7.58
2018-07-13T16:01:50.717Z,7.40
2018-07-13T16:04:20.184Z,6.30
2018-07-13T16:06:48.993Z,7.22
2018-07-13T16:09:20.578Z,5.40
2018-07-13T16:11:59.621Z,5.33
2018-07-13T16:14:28.215Z,5.23
2018-07-13T16:16:56.768Z,5.97
2018-07-13T16:19:25.595Z,5.40
2018-07-13T16:21:55.697Z,6.33
2018-07-13T16:24:24.445Z,5.53
2018-07-13T16:26:53.539Z,5.72
2018-07-13T16:29:22.968Z,5.70
2018-07-13T16:31:51.661Z,5.90
2018-07-13T16:34:20.228Z,6.20
2018-07-13T16:36:49.521Z,5.17
2018-07-13T16:39:43.674Z,5.40
2018-07-13T16:42:12.322Z,5.67
2018-07-13T16:44:41.121Z,4.57
2018-07-13T16:47:09.620Z,5.87
2018-07-13T16:49:38.198Z,4.97
2018-07-13T16:52:06.864Z,5.37
2018-07-13T16:54:35.373Z,5.40
2018-07-13T16:57:04.115Z,4.10
2018-07-13T16:59:32.719Z,5.30
2018-07-13T17:02:01.299Z,4.37
2018-07-13T17:04:30.666Z,4.50
2018-07-13T17:06:59.287Z,4.50
2018-07-13T17:09:27.737Z,5.33
2018-07-13T17:11:56.314Z,5.70
2018-07-13T17:14:24.836Z,4.77
2018-07-13T17:16:53.443Z,4.07
2018-07-13T17:19:22.042Z,4.00
2018-07-13T17:26:47.222Z,4.50
2018-07-13T17:29:16.278Z,4.28
2018-07-13T17:31:45.088Z,4.83
2018-07-13T17:34:14.159Z,4.47
2018-07-13T17:36:43.227Z,5.93
2018-07-13T17:39:11.877Z,4.63
2018-07-13T17:41:40.701Z,5.17
2018-07-13T17:44:09.229Z,4.47
2018-07-13T17:46:37.787Z,4.85
2018-07-13T17:49:06.437Z,4.70
2018-07-13T17:51:35.077Z,4.80
2018-07-13T17:54:03.651Z,4.73
2018-07-13T17:56:32.299Z,5.10
2018-07-13T17:59:00.955Z,5.10
2018-07-13T18:01:30.276Z,5.70
2018-07-13T18:03:58.769Z,6.03
2018-07-13T18:06:27.690Z,5.12
2018-07-13T18:08:56.184Z,5.80
2018-07-13T18:11:24.801Z,6.28
2018-07-13T18:13:53.332Z,6.00
2018-07-13T18:16:21.913Z,5.83
2018-07-13T18:18:50.544Z,6.23
2018-07-13T18:21:19.253Z,6.20
2018-07-13T18:23:48.685Z,6.37
2018-07-13T18:26:17.229Z,7.97
2018-07-13T18:28:45.755Z,6.42
2018-07-13T18:31:14.309Z,6.67
2018-07-13T18:33:42.877Z,6.20
2018-07-13T18:36:11.549Z,6.63
2018-07-13T18:38:40.163Z,6.53
2018-07-13T18:41:08.645Z,6.20
2018-07-13T18:43:37.340Z,7.13
2018-07-13T18:46:05.810Z,6.13
2018-07-13T18:48:34.360Z,6.53
2018-07-13T18:51:03.114Z,6.33
2018-07-13T18:53:31.812Z,6.13
2018-07-13T18:56:00.341Z,6.50
2018-07-13T18:58:28.892Z,6.03
2018-07-13T19:00:57.442Z,6.33
2018-07-13T19:03:25.974Z,6.60
2018-07-13T19:05:54.467Z,6.67
2018-07-13T19:08:23.662Z,6.30
2018-07-13T19:10:52.313Z,6.93
2018-07-13T19:13:20.844Z,6.50
2018-07-13T19:15:49.580Z,5.93
2018-07-13T19:18:18.088Z,7.10
2018-07-13T19:20:46.643Z,7.07
2018-07-13T19:23:15.475Z,5.90
2018-07-13T19:25:44.345Z,6.87
2018-07-13T19:28:13.125Z,5.57
2018-07-13T19:30:41.730Z,6.40
2018-07-13T19:33:10.238Z,5.60
2018-07-13T19:35:39.743Z,6.75
2018-07-13T19:38:08.337Z,8.90
2018-07-13T19:40:37.030Z,4.93
2018-07-13T19:43:05.860Z,6.03
2018-07-13T19:45:34.437Z,7.80
2018-07-13T19:48:02.940Z,7.13
2018-07-13T19:50:31.497Z,9.33
2018-07-13T19:53:00.100Z,9.27
2018-07-13T19:55:28.663Z,5.20
2018-07-13T19:57:57.216Z,5.60
2018-07-13T20:00:25.789Z,6.03
2018-07-13T20:02:55.311Z,5.93
2018-07-13T20:05:24.384Z,5.33
2018-07-13T20:07:54.108Z,4.77
2018-07-13T20:10:26.234Z,5.91
2018-07-13T20:12:55.264Z,6.62
2018-07-13T20:15:24.975Z,5.72
2018-07-13T20:17:53.852Z,5.10
2018-07-13T20:20:22.674Z,5.53
2018-07-13T20:22:51.329Z,6.03
2018-07-13T20:25:20.116Z,5.77
2018-07-13T20:27:48.740Z,6.27
2018-07-13T20:30:17.390Z,5.67
2018-07-13T20:32:46.028Z,6.20
2018-07-13T20:35:14.596Z,5.30
2018-07-13T20:37:43.124Z,6.37
2018-07-13T20:40:13.054Z,5.27
2018-07-13T20:42:44.110Z,5.67
2018-07-13T20:45:12.683Z,5.80
2018-07-13T20:47:41.759Z,6.47
2018-07-13T20:50:10.300Z,6.70
2018-07-13T20:52:38.887Z,6.90
2018-07-13T20:55:07.445Z,5.97
2018-07-13T20:57:36.565Z,7.13
2018-07-13T21:00:05.699Z,6.40
2018-07-13T21:02:34.272Z,5.80
2018-07-13T21:05:03.829Z,6.30
2018-07-13T21:07:32.382Z,6.93
2018-07-13T21:33:21.246Z,8.73
2018-07-13T21:35:49.804Z,12.47
2018-07-13T21:38:18.325Z,8.07
2018-07-13T21:40:46.491Z,8.00
2018-07-13T21:43:14.764Z,8.47
2018-07-13T21:45:43.402Z,7.67
2018-07-13T21:48:11.933Z,8.83
2018-07-13T21:50:40.597Z,8.13
2018-07-13T21:53:09.130Z,8.20
2018-07-13T21:55:37.356Z,8.97
2018-07-13T21:58:06.124Z,7.30
2018-07-13T22:00:34.879Z,8.67
2018-07-13T22:03:05.359Z,8.50
2018-07-13T22:05:33.908Z,9.50
2018-07-13T22:08:02.427Z,7.97
2018-07-13T22:10:30.965Z,9.13
2018-07-13T22:12:59.544Z,7.60
2018-07-13T22:15:28.084Z,7.60
2018-07-13T22:17:57.154Z,8.80
2018-07-13T22:20:25.659Z,7.63
2018-07-13T22:22:54.880Z,7.60
2018-07-13T22:25:23.392Z,8.57
2018-07-13T22:27:51.891Z,8.27
2018-07-13T22:30:20.561Z,8.57
2018-07-13T22:32:50.052Z,7.43
2018-07-13T22:35:18.560Z,9.00
2018-07-13T22:37:47.186Z,10.43
2018-07-13T22:40:15.756Z,10.20
2018-07-13T22:42:43.859Z,9.20
2018-07-13T22:45:12.440Z,10.30
2018-07-13T22:47:40.670Z,8.07
2018-07-13T22:50:08.904Z,12.33
2018-07-13T22:52:37.136Z,7.63
2018-07-13T22:55:05.802Z,8.23
2018-07-13T22:57:33.946Z,7.75
2018-07-13T23:00:02.256Z,8.57
2018-07-13T23:02:30.652Z,8.33
2018-07-13T23:04:59.464Z,8.07
2018-07-13T23:07:27.635Z,9.93
2018-07-13T23:09:55.843Z,7.57
2018-07-13T23:12:24.073Z,10.83
2018-07-13T23:14:52.298Z,7.83
2018-07-13T23:17:20.929Z,7.87
2018-07-13T23:19:49.417Z,14.10
2018-07-13T23:22:17.928Z,7.40
2018-07-13T23:24:46.539Z,8.53
2018-07-13T23:27:15.724Z,7.78
2018-07-13T23:29:44.083Z,8.13
2018-07-13T23:32:12.295Z,11.27
2018-07-13T23:34:40.830Z,8.47
2018-07-13T23:37:09.081Z,8.67
2018-07-13T23:39:37.303Z,7.73
2018-07-13T23:42:05.484Z,9.37
2018-07-13T23:44:33.667Z,7.93
2018-07-13T23:47:01.845Z,9.77
2018-07-13T23:49:30.388Z,8.83
2018-07-13T23:51:58.614Z,8.48
2018-07-13T23:54:26.768Z,8.30
2018-07-13T23:56:54.979Z,8.33
2018-07-13T23:59:23.206Z,9.07
